sensor_id;sensor_type;location;lat;lon;timestamp;pressure;altitude;pressure_sealevel;temperature
82780;BMP280;72511;45.120;20.720;2023-09-08T00:02:20;100833.31;;;18.61
82780;BMP280;72511;45.120;20.720;2023-09-08T00:12:21;100837.19;;;18.55
82780;BMP280;72511;45.120;20.720;2023-09-08T00:22:21;100841.81;;;18.40
82780;BMP280;72511;45.120;20.720;2023-09-08T00:32:22;100850.03;;;18.40
82780;BMP280;72511;45.120;20.720;2023-09-08T00:42:23;100847.00;;;18.29
82780;BMP280;72511;45.120;20.720;2023-09-08T00:52:23;100828.16;;;18.31
82780;BMP280;72511;45.120;20.720;2023-09-08T01:02:24;100828.88;;;18.40
82780;BMP280;72511;45.120;20.720;2023-09-08T01:12:24;100833.97;;;18.47
82780;BMP280;72511;45.120;20.720;2023-09-08T01:22:45;100833.31;;;18.38
82780;BMP280;72511;45.120;20.720;2023-09-08T01:32:53;100854.75;;;18.39
82780;BMP280;72511;45.120;20.720;2023-09-08T01:42:54;100858.22;;;18.72
82780;BMP280;72511;45.120;20.720;2023-09-08T01:52:54;100858.19;;;18.81
82780;BMP280;72511;45.120;20.720;2023-09-08T02:02:56;100870.28;;;18.66
82780;BMP280;72511;45.120;20.720;2023-09-08T02:12:57;100850.75;;;18.49
82780;BMP280;72511;45.120;20.720;2023-09-08T02:22:57;100868.06;;;18.55
82780;BMP280;72511;45.120;20.720;2023-09-08T02:32:58;100874.78;;;18.54
82780;BMP280;72511;45.120;20.720;2023-09-08T02:42:58;100850.38;;;18.33
82780;BMP280;72511;45.120;20.720;2023-09-08T02:52:59;100865.13;;;18.35
82780;BMP280;72511;45.120;20.720;2023-09-08T03:03:00;100848.31;;;18.19
82780;BMP280;72511;45.120;20.720;2023-09-08T03:13:01;100865.50;;;18.11
82780;BMP280;72511;45.120;20.720;2023-09-08T03:23:02;100863.72;;;17.99
82780;BMP280;72511;45.120;20.720;2023-09-08T03:33:02;100857.03;;;17.91
82780;BMP280;72511;45.120;20.720;2023-09-08T03:43:04;100839.16;;;17.63
82780;BMP280;72511;45.120;20.720;2023-09-08T03:53:05;100869.09;;;17.57
82780;BMP280;72511;45.120;20.720;2023-09-08T04:03:06;100864.41;;;17.49
82780;BMP280;72511;45.120;20.720;2023-09-08T04:13:07;100866.66;;;17.50
82780;BMP280;72511;45.120;20.720;2023-09-08T04:23:07;100852.38;;;17.46
82780;BMP280;72511;45.120;20.720;2023-09-08T04:33:08;100867.91;;;17.58
82780;BMP280;72511;45.120;20.720;2023-09-08T04:43:09;100861.63;;;17.76
82780;BMP280;72511;45.120;20.720;2023-09-08T04:53:09;100873.47;;;20.22
82780;BMP280;72511;45.120;20.720;2023-09-08T05:03:11;100890.25;;;20.38
82780;BMP280;72511;45.120;20.720;2023-09-08T05:13:11;100872.88;;;19.16
82780;BMP280;72511;45.120;20.720;2023-09-08T05:23:13;100885.81;;;19.39
82780;BMP280;72511;45.120;20.720;2023-09-08T05:33:14;100897.31;;;19.81
82780;BMP280;72511;45.120;20.720;2023-09-08T06:03:16;100892.63;;;28.13
82780;BMP280;72511;45.120;20.720;2023-09-08T06:13:17;100891.44;;;28.80
82780;BMP280;72511;45.120;20.720;2023-09-08T06:23:20;100898.44;;;29.35
82780;BMP280;72511;45.120;20.720;2023-09-08T06:33:20;100886.44;;;30.61
82780;BMP280;72511;45.120;20.720;2023-09-08T06:43:21;100869.91;;;30.63
82780;BMP280;72511;45.120;20.720;2023-09-08T06:53:31;100888.53;;;31.50
82780;BMP280;72511;45.120;20.720;2023-09-08T07:03:32;100902.13;;;31.84
82780;BMP280;72511;45.120;20.720;2023-09-08T07:13:33;100904.84;;;31.99
82780;BMP280;72511;45.120;20.720;2023-09-08T07:23:33;100898.94;;;32.58
82780;BMP280;72511;45.120;20.720;2023-09-08T07:33:34;100903.53;;;32.95
82780;BMP280;72511;45.120;20.720;2023-09-08T07:43:35;100905.41;;;33.17
82780;BMP280;72511;45.120;20.720;2023-09-08T07:53:36;100907.50;;;33.84
82780;BMP280;72511;45.120;20.720;2023-09-08T08:03:36;100915.59;;;33.80
82780;BMP280;72511;45.120;20.720;2023-09-08T08:13:37;100902.38;;;33.56
82780;BMP280;72511;45.120;20.720;2023-09-08T08:23:37;100906.03;;;34.36
82780;BMP280;72511;45.120;20.720;2023-09-08T08:33:38;100913.16;;;34.73
82780;BMP280;72511;45.120;20.720;2023-09-08T08:43:38;100905.41;;;34.54
82780;BMP280;72511;45.120;20.720;2023-09-08T08:53:39;100907.19;;;35.05
82780;BMP280;72511;45.120;20.720;2023-09-08T09:03:41;100895.22;;;34.59
82780;BMP280;72511;45.120;20.720;2023-09-08T09:13:41;100905.09;;;33.64
82780;BMP280;72511;45.120;20.720;2023-09-08T09:23:42;100891.19;;;32.42
82780;BMP280;72511;45.120;20.720;2023-09-08T09:33:42;100910.19;;;31.35
82780;BMP280;72511;45.120;20.720;2023-09-08T09:43:43;100895.63;;;31.59
82780;BMP280;72511;45.120;20.720;2023-09-08T09:53:43;100885.22;;;31.07
82780;BMP280;72511;45.120;20.720;2023-09-08T10:03:44;100865.72;;;31.84
82780;BMP280;72511;45.120;20.720;2023-09-08T10:13:46;100867.47;;;31.57
82780;BMP280;72511;45.120;20.720;2023-09-08T10:23:57;100876.97;;;31.61
82780;BMP280;72511;45.120;20.720;2023-09-08T10:34:00;100871.59;;;31.26
82780;BMP280;72511;45.120;20.720;2023-09-08T10:44:02;100846.41;;;30.66
82780;BMP280;72511;45.120;20.720;2023-09-08T10:54:04;100840.13;;;30.81
82780;BMP280;72511;45.120;20.720;2023-09-08T11:04:06;100843.09;;;31.05
82780;BMP280;72511;45.120;20.720;2023-09-08T11:14:08;100839.06;;;31.75
82780;BMP280;72511;45.120;20.720;2023-09-08T11:24:11;100819.16;;;31.56
82780;BMP280;72511;45.120;20.720;2023-09-08T11:34:12;100816.47;;;32.44
82780;BMP280;72511;45.120;20.720;2023-09-08T11:44:15;100807.16;;;31.71
82780;BMP280;72511;45.120;20.720;2023-09-08T11:54:16;100804.34;;;31.78
82780;BMP280;72511;45.120;20.720;2023-09-08T12:04:19;100793.25;;;32.27
82780;BMP280;72511;45.120;20.720;2023-09-08T12:14:20;100789.72;;;32.92
82780;BMP280;72511;45.120;20.720;2023-09-08T12:24:51;100772.72;;;33.07
82780;BMP280;72511;45.120;20.720;2023-09-08T12:34:56;100760.72;;;32.00
82780;BMP280;72511;45.120;20.720;2023-09-08T12:44:57;100756.66;;;31.61
82780;BMP280;72511;45.120;20.720;2023-09-08T12:54:57;100744.34;;;31.96
82780;BMP280;72511;45.120;20.720;2023-09-08T13:04:58;100741.00;;;32.46
82780;BMP280;72511;45.120;20.720;2023-09-08T13:14:59;100734.06;;;31.67
82780;BMP280;72511;45.120;20.720;2023-09-08T13:25:00;100726.53;;;32.08
82780;BMP280;72511;45.120;20.720;2023-09-08T13:35:00;100709.31;;;32.61
82780;BMP280;72511;45.120;20.720;2023-09-08T13:45:01;100707.34;;;32.71
82780;BMP280;72511;45.120;20.720;2023-09-08T13:55:01;100708.03;;;32.79
82780;BMP280;72511;45.120;20.720;2023-09-08T14:05:02;100701.03;;;31.97
82780;BMP280;72511;45.120;20.720;2023-09-08T14:15:03;100700.66;;;32.01
82780;BMP280;72511;45.120;20.720;2023-09-08T14:25:05;100685.16;;;30.74
82780;BMP280;72511;45.120;20.720;2023-09-08T14:35:05;100691.47;;;30.37
82780;BMP280;72511;45.120;20.720;2023-09-08T14:45:06;100684.78;;;30.63
82780;BMP280;72511;45.120;20.720;2023-09-08T14:55:07;100697.81;;;30.53
82780;BMP280;72511;45.120;20.720;2023-09-08T15:05:08;100694.28;;;30.37
82780;BMP280;72511;45.120;20.720;2023-09-08T15:15:09;100691.44;;;30.15
82780;BMP280;72511;45.120;20.720;2023-09-08T15:25:09;100694.59;;;29.96
82780;BMP280;72511;45.120;20.720;2023-09-08T15:35:10;100687.59;;;29.67
82780;BMP280;72511;45.120;20.720;2023-09-08T15:45:11;100685.31;;;29.51
82780;BMP280;72511;45.120;20.720;2023-09-08T15:55:11;100678.13;;;29.20
82780;BMP280;72511;45.120;20.720;2023-09-08T16:05:12;100673.06;;;28.83
82780;BMP280;72511;45.120;20.720;2023-09-08T16:15:12;100669.09;;;28.51
82780;BMP280;72511;45.120;20.720;2023-09-08T16:25:13;100661.81;;;28.28
82780;BMP280;72511;45.120;20.720;2023-09-08T16:35:13;100664.78;;;27.89
82780;BMP280;72511;45.120;20.720;2023-09-08T16:45:14;100667.63;;;27.50
82780;BMP280;72511;45.120;20.720;2023-09-08T16:55:15;100662.94;;;27.06
82780;BMP280;72511;45.120;20.720;2023-09-08T17:05:15;100667.09;;;26.55
82780;BMP280;72511;45.120;20.720;2023-09-08T17:15:16;100666.81;;;26.09
82780;BMP280;72511;45.120;20.720;2023-09-08T17:25:16;100674.50;;;25.79
82780;BMP280;72511;45.120;20.720;2023-09-08T17:35:17;100699.94;;;25.59
82780;BMP280;72511;45.120;20.720;2023-09-08T17:45:17;100685.22;;;25.27
82780;BMP280;72511;45.120;20.720;2023-09-08T17:55:18;100717.75;;;25.21
82780;BMP280;72511;45.120;20.720;2023-09-08T18:05:19;100697.16;;;24.87
82780;BMP280;72511;45.120;20.720;2023-09-08T18:15:19;100719.66;;;24.78
82780;BMP280;72511;45.120;20.720;2023-09-08T18:25:21;100728.53;;;24.60
82780;BMP280;72511;45.120;20.720;2023-09-08T18:35:22;100722.38;;;24.38
82780;BMP280;72511;45.120;20.720;2023-09-08T18:45:22;100719.78;;;24.10
82780;BMP280;72511;45.120;20.720;2023-09-08T18:55:23;100708.06;;;23.82
82780;BMP280;72511;45.120;20.720;2023-09-08T19:05:23;100714.16;;;23.70
82780;BMP280;72511;45.120;20.720;2023-09-08T19:15:24;100713.97;;;23.46
82780;BMP280;72511;45.120;20.720;2023-09-08T19:25:24;100704.94;;;23.18
82780;BMP280;72511;45.120;20.720;2023-09-08T19:35:25;100698.91;;;23.03
82780;BMP280;72511;45.120;20.720;2023-09-08T19:45:26;100698.16;;;22.81
82780;BMP280;72511;45.120;20.720;2023-09-08T19:55:26;100703.66;;;22.70
82780;BMP280;72511;45.120;20.720;2023-09-08T20:05:27;100698.13;;;22.59
82780;BMP280;72511;45.120;20.720;2023-09-08T20:15:27;100705.84;;;22.44
82780;BMP280;72511;45.120;20.720;2023-09-08T20:25:28;100711.06;;;22.31
82780;BMP280;72511;45.120;20.720;2023-09-08T20:35:29;100710.50;;;22.16
82780;BMP280;72511;45.120;20.720;2023-09-08T20:45:29;100703.66;;;22.00
82780;BMP280;72511;45.120;20.720;2023-09-08T20:55:30;100696.75;;;21.74
82780;BMP280;72511;45.120;20.720;2023-09-08T21:05:30;100709.03;;;21.73
82780;BMP280;72511;45.120;20.720;2023-09-08T21:15:31;100702.84;;;21.47
82780;BMP280;72511;45.120;20.720;2023-09-08T21:25:35;100718.53;;;21.35
82780;BMP280;72511;45.120;20.720;2023-09-08T21:35:35;100714.13;;;21.18
82780;BMP280;72511;45.120;20.720;2023-09-08T21:45:36;100711.13;;;21.16
82780;BMP280;72511;45.120;20.720;2023-09-08T21:55:37;100709.78;;;21.06
82780;BMP280;72511;45.120;20.720;2023-09-08T22:05:37;100705.91;;;20.93
82780;BMP280;72511;45.120;20.720;2023-09-08T22:15:38;100711.78;;;20.80
82780;BMP280;72511;45.120;20.720;2023-09-08T22:25:39;100679.25;;;20.53
82780;BMP280;72511;45.120;20.720;2023-09-08T22:35:39;100689.50;;;20.53
82780;BMP280;72511;45.120;20.720;2023-09-08T22:45:43;100676.88;;;20.41
82780;BMP280;72511;45.120;20.720;2023-09-08T22:55:43;100686.56;;;20.36
82780;BMP280;72511;45.120;20.720;2023-09-08T23:05:44;100671.09;;;20.19
82780;BMP280;72511;45.120;20.720;2023-09-08T23:15:44;100670.38;;;20.04
82780;BMP280;72511;45.120;20.720;2023-09-08T23:25:45;100657.41;;;19.84
82780;BMP280;72511;45.120;20.720;2023-09-08T23:35:46;100659.91;;;19.82
82780;BMP280;72511;45.120;20.720;2023-09-08T23:45:46;100664.50;;;19.91
82780;BMP280;72511;45.120;20.720;2023-09-08T23:55:47;100657.97;;;19.88
